sensor_id;sensor_type;location;lat;lon;timestamp;temperature;humidity
17284;DHT22;8760;52.248;20.952;2022-09-16T00:00:06;12.70;92.00
17284;DHT22;8760;52.248;20.952;2022-09-16T00:02:34;12.70;94.30
17284;DHT22;8760;52.248;20.952;2022-09-16T00:05:03;12.70;89.20
17284;DHT22;8760;52.248;20.952;2022-09-16T00:07:30;12.70;95.20
17284;DHT22;8760;52.248;20.952;2022-09-16T00:09:56;12.70;94.40
17284;DHT22;8760;52.248;20.952;2022-09-16T00:12:23;12.70;90.40
17284;DHT22;8760;52.248;20.952;2022-09-16T00:14:51;12.80;91.80
17284;DHT22;8760;52.248;20.952;2022-09-16T00:17:18;12.80;92.00
17284;DHT22;8760;52.248;20.952;2022-09-16T00:19:45;12.90;83.60
17284;DHT22;8760;52.248;20.952;2022-09-16T00:22:13;12.90;76.30
17284;DHT22;8760;52.248;20.952;2022-09-16T00:24:40;12.80;68.90
17284;DHT22;8760;52.248;20.952;2022-09-16T00:27:06;12.80;67.60
17284;DHT22;8760;52.248;20.952;2022-09-16T00:29:33;12.80;60.70
17284;DHT22;8760;52.248;20.952;2022-09-16T00:32:00;12.80;58.70
17284;DHT22;8760;52.248;20.952;2022-09-16T00:34:27;12.80;55.00
17284;DHT22;8760;52.248;20.952;2022-09-16T00:36:54;12.80;55.50
17284;DHT22;8760;52.248;20.952;2022-09-16T00:39:22;12.80;49.40
17284;DHT22;8760;52.248;20.952;2022-09-16T00:41:49;12.80;44.80
17284;DHT22;8760;52.248;20.952;2022-09-16T00:44:51;12.70;52.90
17284;DHT22;8760;52.248;20.952;2022-09-16T00:47:22;12.70;54.60
17284;DHT22;8760;52.248;20.952;2022-09-16T00:49:49;12.70;48.40
17284;DHT22;8760;52.248;20.952;2022-09-16T00:52:17;12.70;43.80
17284;DHT22;8760;52.248;20.952;2022-09-16T00:54:46;12.70;44.60
17284;DHT22;8760;52.248;20.952;2022-09-16T00:57:14;12.60;39.00
17284;DHT22;8760;52.248;20.952;2022-09-16T00:59:44;12.60;35.40
17284;DHT22;8760;52.248;20.952;2022-09-16T01:02:14;12.60;25.50
17284;DHT22;8760;52.248;20.952;2022-09-16T01:04:45;12.60;34.60
17284;DHT22;8760;52.248;20.952;2022-09-16T01:07:17;12.70;25.60
17284;DHT22;8760;52.248;20.952;2022-09-16T01:09:43;12.70;24.50
17284;DHT22;8760;52.248;20.952;2022-09-16T01:12:12;12.70;12.70
17284;DHT22;8760;52.248;20.952;2022-09-16T01:14:39;12.70;1.00
17284;DHT22;8760;52.248;20.952;2022-09-16T01:17:35;12.70;4.00
17284;DHT22;8760;52.248;20.952;2022-09-16T01:26:29;12.80;1.00
17284;DHT22;8760;52.248;20.952;2022-09-16T01:29:21;12.80;1.00
17284;DHT22;8760;52.248;20.952;2022-09-16T01:31:57;12.80;1.00
17284;DHT22;8760;52.248;20.952;2022-09-16T01:34:35;12.70;1.00
17284;DHT22;8760;52.248;20.952;2022-09-16T01:37:08;12.70;1.00
17284;DHT22;8760;52.248;20.952;2022-09-16T01:39:44;12.60;1.00
17284;DHT22;8760;52.248;20.952;2022-09-16T01:42:20;12.60;1.00
17284;DHT22;8760;52.248;20.952;2022-09-16T01:44:55;12.60;1.00
17284;DHT22;8760;52.248;20.952;2022-09-16T01:47:33;12.50;1.00
17284;DHT22;8760;52.248;20.952;2022-09-16T01:50:06;12.50;1.00
17284;DHT22;8760;52.248;20.952;2022-09-16T01:52:44;12.50;1.00
17284;DHT22;8760;52.248;20.952;2022-09-16T01:55:15;12.50;4.70
17284;DHT22;8760;52.248;20.952;2022-09-16T01:57:49;12.50;1.00
17284;DHT22;8760;52.248;20.952;2022-09-16T02:00:16;12.50;1.00
17284;DHT22;8760;52.248;20.952;2022-09-16T02:02:47;12.50;1.00
17284;DHT22;8760;52.248;20.952;2022-09-16T02:05:19;12.50;1.00
17284;DHT22;8760;52.248;20.952;2022-09-16T02:07:51;12.50;1.00
17284;DHT22;8760;52.248;20.952;2022-09-16T02:10:23;12.50;1.00
17284;DHT22;8760;52.248;20.952;2022-09-16T02:12:52;12.60;1.00
17284;DHT22;8760;52.248;20.952;2022-09-16T02:15:22;12.60;1.00
17284;DHT22;8760;52.248;20.952;2022-09-16T02:17:55;12.60;1.00
17284;DHT22;8760;52.248;20.952;2022-09-16T02:20:26;12.60;1.00
17284;DHT22;8760;52.248;20.952;2022-09-16T02:22:57;12.60;1.00
17284;DHT22;8760;52.248;20.952;2022-09-16T02:25:25;12.60;1.00
17284;DHT22;8760;52.248;20.952;2022-09-16T02:27:53;12.60;1.00
17284;DHT22;8760;52.248;20.952;2022-09-16T02:30:21;12.60;1.00
17284;DHT22;8760;52.248;20.952;2022-09-16T02:32:52;12.60;1.00
17284;DHT22;8760;52.248;20.952;2022-09-16T02:35:21;12.50;1.00
17284;DHT22;8760;52.248;20.952;2022-09-16T02:37:50;12.50;1.00
17284;DHT22;8760;52.248;20.952;2022-09-16T02:40:23;12.40;3.50
17284;DHT22;8760;52.248;20.952;2022-09-16T02:42:51;12.40;16.80
17284;DHT22;8760;52.248;20.952;2022-09-16T02:45:19;12.40;17.30
17284;DHT22;8760;52.248;20.952;2022-09-16T02:47:59;12.40;22.20
17284;DHT22;8760;52.248;20.952;2022-09-16T02:50:30;12.40;34.60
17284;DHT22;8760;52.248;20.952;2022-09-16T02:53:00;12.40;32.00
17284;DHT22;8760;52.248;20.952;2022-09-16T02:55:33;12.40;34.50
17284;DHT22;8760;52.248;20.952;2022-09-16T02:58:04;12.40;35.00
17284;DHT22;8760;52.248;20.952;2022-09-16T03:00:33;12.40;36.90
17284;DHT22;8760;52.248;20.952;2022-09-16T03:03:03;12.40;27.50
17284;DHT22;8760;52.248;20.952;2022-09-16T03:05:30;12.50;32.20
17284;DHT22;8760;52.248;20.952;2022-09-16T03:07:58;12.50;28.40
17284;DHT22;8760;52.248;20.952;2022-09-16T03:10:32;12.50;24.40
17284;DHT22;8760;52.248;20.952;2022-09-16T03:13:06;12.50;24.00
17284;DHT22;8760;52.248;20.952;2022-09-16T03:15:51;12.50;30.10
17284;DHT22;8760;52.248;20.952;2022-09-16T03:21:24;12.40;44.30
17284;DHT22;8760;52.248;20.952;2022-09-16T03:24:03;12.40;54.30
17284;DHT22;8760;52.248;20.952;2022-09-16T03:26:39;12.30;64.50
17284;DHT22;8760;52.248;20.952;2022-09-16T03:29:14;12.30;55.90
17284;DHT22;8760;52.248;20.952;2022-09-16T03:31:46;12.30;67.70
17284;DHT22;8760;52.248;20.952;2022-09-16T03:34:20;12.30;75.60
17284;DHT22;8760;52.248;20.952;2022-09-16T03:36:52;12.20;80.10
17284;DHT22;8760;52.248;20.952;2022-09-16T03:39:20;12.10;95.80
17284;DHT22;8760;52.248;20.952;2022-09-16T03:41:47;12.10;99.80
17284;DHT22;8760;52.248;20.952;2022-09-16T03:44:15;12.10;99.90
17284;DHT22;8760;52.248;20.952;2022-09-16T03:46:41;12.10;96.10
17284;DHT22;8760;52.248;20.952;2022-09-16T03:49:08;12.00;99.90
17284;DHT22;8760;52.248;20.952;2022-09-16T03:51:37;12.00;99.90
17284;DHT22;8760;52.248;20.952;2022-09-16T03:54:04;12.00;99.90
17284;DHT22;8760;52.248;20.952;2022-09-16T03:56:31;11.90;99.90
17284;DHT22;8760;52.248;20.952;2022-09-16T03:58:57;11.90;99.90
17284;DHT22;8760;52.248;20.952;2022-09-16T04:01:24;11.90;99.90
17284;DHT22;8760;52.248;20.952;2022-09-16T04:03:51;11.90;99.90
17284;DHT22;8760;52.248;20.952;2022-09-16T04:06:18;11.90;99.90
17284;DHT22;8760;52.248;20.952;2022-09-16T04:08:46;11.90;99.90
17284;DHT22;8760;52.248;20.952;2022-09-16T04:11:15;11.90;99.90
17284;DHT22;8760;52.248;20.952;2022-09-16T04:13:42;11.80;99.90
17284;DHT22;8760;52.248;20.952;2022-09-16T04:16:09;11.80;99.90
17284;DHT22;8760;52.248;20.952;2022-09-16T04:18:35;11.80;99.90
17284;DHT22;8760;52.248;20.952;2022-09-16T04:21:03;11.80;99.90
17284;DHT22;8760;52.248;20.952;2022-09-16T04:23:30;11.80;99.90
17284;DHT22;8760;52.248;20.952;2022-09-16T04:26:00;11.70;99.90
17284;DHT22;8760;52.248;20.952;2022-09-16T04:28:27;11.70;99.90
17284;DHT22;8760;52.248;20.952;2022-09-16T04:30:59;11.70;99.90
17284;DHT22;8760;52.248;20.952;2022-09-16T04:33:27;11.70;99.90
17284;DHT22;8760;52.248;20.952;2022-09-16T04:35:53;11.80;99.90
17284;DHT22;8760;52.248;20.952;2022-09-16T04:38:20;11.80;99.90
17284;DHT22;8760;52.248;20.952;2022-09-16T04:40:47;11.70;99.90
17284;DHT22;8760;52.248;20.952;2022-09-16T04:43:15;11.70;99.90
17284;DHT22;8760;52.248;20.952;2022-09-16T04:45:42;11.70;99.90
17284;DHT22;8760;52.248;20.952;2022-09-16T04:48:09;11.70;99.90
17284;DHT22;8760;52.248;20.952;2022-09-16T04:50:35;11.70;99.90
17284;DHT22;8760;52.248;20.952;2022-09-16T04:53:02;11.70;99.90
17284;DHT22;8760;52.248;20.952;2022-09-16T04:55:29;11.80;99.90
17284;DHT22;8760;52.248;20.952;2022-09-16T04:57:58;11.80;99.90
17284;DHT22;8760;52.248;20.952;2022-09-16T05:00:26;11.80;99.90
17284;DHT22;8760;52.248;20.952;2022-09-16T05:02:53;11.80;99.90
17284;DHT22;8760;52.248;20.952;2022-09-16T05:05:20;11.80;99.90
17284;DHT22;8760;52.248;20.952;2022-09-16T05:07:48;11.80;99.90
17284;DHT22;8760;52.248;20.952;2022-09-16T05:10:15;11.70;99.90
17284;DHT22;8760;52.248;20.952;2022-09-16T05:12:42;11.80;99.90
17284;DHT22;8760;52.248;20.952;2022-09-16T05:15:08;11.80;99.90
17284;DHT22;8760;52.248;20.952;2022-09-16T05:17:37;11.80;99.90
17284;DHT22;8760;52.248;20.952;2022-09-16T05:20:04;11.80;99.90
17284;DHT22;8760;52.248;20.952;2022-09-16T05:22:31;11.80;99.90
17284;DHT22;8760;52.248;20.952;2022-09-16T05:24:58;11.90;89.00
17284;DHT22;8760;52.248;20.952;2022-09-16T05:27:25;11.90;75.90
17284;DHT22;8760;52.248;20.952;2022-09-16T05:29:52;11.90;34.50
17284;DHT22;8760;52.248;20.952;2022-09-16T05:32:19;12.00;22.20
17284;DHT22;8760;52.248;20.952;2022-09-16T05:34:47;12.00;6.00
17284;DHT22;8760;52.248;20.952;2022-09-16T05:37:15;12.10;10.50
17284;DHT22;8760;52.248;20.952;2022-09-16T05:39:41;12.10;1.00
17284;DHT22;8760;52.248;20.952;2022-09-16T05:42:09;12.20;1.00
17284;DHT22;8760;52.248;20.952;2022-09-16T05:44:36;12.20;1.00
17284;DHT22;8760;52.248;20.952;2022-09-16T05:47:02;12.30;1.00
17284;DHT22;8760;52.248;20.952;2022-09-16T05:49:29;12.40;1.00
17284;DHT22;8760;52.248;20.952;2022-09-16T05:51:57;12.50;1.00
17284;DHT22;8760;52.248;20.952;2022-09-16T05:54:24;12.50;1.00
17284;DHT22;8760;52.248;20.952;2022-09-16T05:56:51;12.50;1.00
17284;DHT22;8760;52.248;20.952;2022-09-16T05:59:18;12.60;1.00
17284;DHT22;8760;52.248;20.952;2022-09-16T06:01:45;12.70;1.00
17284;DHT22;8760;52.248;20.952;2022-09-16T06:04:13;12.70;1.00
17284;DHT22;8760;52.248;20.952;2022-09-16T06:06:41;12.60;1.00
17284;DHT22;8760;52.248;20.952;2022-09-16T06:09:11;12.60;1.00
17284;DHT22;8760;52.248;20.952;2022-09-16T06:11:40;12.70;1.00
17284;DHT22;8760;52.248;20.952;2022-09-16T06:14:08;12.70;1.00
17284;DHT22;8760;52.248;20.952;2022-09-16T06:16:35;12.70;1.00
17284;DHT22;8760;52.248;20.952;2022-09-16T06:19:04;12.70;1.00
17284;DHT22;8760;52.248;20.952;2022-09-16T06:21:31;12.70;1.00
17284;DHT22;8760;52.248;20.952;2022-09-16T06:23:58;12.80;1.00
17284;DHT22;8760;52.248;20.952;2022-09-16T06:26:26;12.90;99.90
17284;DHT22;8760;52.248;20.952;2022-09-16T06:28:54;12.90;99.90
17284;DHT22;8760;52.248;20.952;2022-09-16T06:31:23;12.70;99.90
17284;DHT22;8760;52.248;20.952;2022-09-16T06:33:50;12.60;99.90
17284;DHT22;8760;52.248;20.952;2022-09-16T06:36:20;12.70;1.00
17284;DHT22;8760;52.248;20.952;2022-09-16T06:38:47;12.70;99.90
17284;DHT22;8760;52.248;20.952;2022-09-16T06:41:16;12.70;99.90
17284;DHT22;8760;52.248;20.952;2022-09-16T06:43:44;12.70;99.90
17284;DHT22;8760;52.248;20.952;2022-09-16T06:46:12;12.70;99.90
17284;DHT22;8760;52.248;20.952;2022-09-16T06:48:41;12.80;99.90
17284;DHT22;8760;52.248;20.952;2022-09-16T06:51:09;12.80;99.90
17284;DHT22;8760;52.248;20.952;2022-09-16T06:53:37;12.90;99.90
17284;DHT22;8760;52.248;20.952;2022-09-16T06:56:05;13.20;99.90
17284;DHT22;8760;52.248;20.952;2022-09-16T06:58:33;13.20;1.00
17284;DHT22;8760;52.248;20.952;2022-09-16T07:01:05;13.40;99.90
17284;DHT22;8760;52.248;20.952;2022-09-16T07:03:32;13.90;1.00
17284;DHT22;8760;52.248;20.952;2022-09-16T07:06:00;14.60;1.00
17284;DHT22;8760;52.248;20.952;2022-09-16T07:08:28;15.50;1.00
17284;DHT22;8760;52.248;20.952;2022-09-16T07:10:57;15.90;99.90
17284;DHT22;8760;52.248;20.952;2022-09-16T07:13:24;16.40;1.00
17284;DHT22;8760;52.248;20.952;2022-09-16T07:15:51;16.70;93.00
17284;DHT22;8760;52.248;20.952;2022-09-16T07:18:19;16.50;1.00
17284;DHT22;8760;52.248;20.952;2022-09-16T07:20:46;16.20;1.00
17284;DHT22;8760;52.248;20.952;2022-09-16T07:23:13;16.00;1.00
17284;DHT22;8760;52.248;20.952;2022-09-16T07:25:40;16.20;1.00
17284;DHT22;8760;52.248;20.952;2022-09-16T07:28:06;16.30;1.00
17284;DHT22;8760;52.248;20.952;2022-09-16T07:30:33;16.20;1.00
17284;DHT22;8760;52.248;20.952;2022-09-16T07:33:00;16.60;1.00
17284;DHT22;8760;52.248;20.952;2022-09-16T07:35:28;17.40;99.90
17284;DHT22;8760;52.248;20.952;2022-09-16T07:37:55;18.10;38.50
17284;DHT22;8760;52.248;20.952;2022-09-16T07:40:21;18.20;1.00
17284;DHT22;8760;52.248;20.952;2022-09-16T07:42:48;18.20;1.00
17284;DHT22;8760;52.248;20.952;2022-09-16T07:45:15;18.10;1.00
17284;DHT22;8760;52.248;20.952;2022-09-16T07:47:42;18.50;1.00
17284;DHT22;8760;52.248;20.952;2022-09-16T07:50:09;18.50;1.00
17284;DHT22;8760;52.248;20.952;2022-09-16T07:52:37;18.40;1.00
17284;DHT22;8760;52.248;20.952;2022-09-16T07:55:05;18.10;1.00
17284;DHT22;8760;52.248;20.952;2022-09-16T07:57:32;17.90;1.00
17284;DHT22;8760;52.248;20.952;2022-09-16T07:59:58;18.30;1.00
17284;DHT22;8760;52.248;20.952;2022-09-16T08:02:25;18.90;1.00
17284;DHT22;8760;52.248;20.952;2022-09-16T08:04:52;18.80;1.00
17284;DHT22;8760;52.248;20.952;2022-09-16T08:07:19;18.70;1.00
17284;DHT22;8760;52.248;20.952;2022-09-16T08:09:47;18.70;99.90
17284;DHT22;8760;52.248;20.952;2022-09-16T08:12:13;18.90;99.90
17284;DHT22;8760;52.248;20.952;2022-09-16T08:14:40;18.90;99.90
17284;DHT22;8760;52.248;20.952;2022-09-16T08:17:07;18.80;99.90
17284;DHT22;8760;52.248;20.952;2022-09-16T08:19:34;18.80;99.90
17284;DHT22;8760;52.248;20.952;2022-09-16T08:22:02;19.10;99.90
17284;DHT22;8760;52.248;20.952;2022-09-16T08:24:29;19.60;99.90
17284;DHT22;8760;52.248;20.952;2022-09-16T08:26:58;19.20;99.90
17284;DHT22;8760;52.248;20.952;2022-09-16T08:29:25;18.60;99.90
17284;DHT22;8760;52.248;20.952;2022-09-16T08:31:51;18.50;99.90
17284;DHT22;8760;52.248;20.952;2022-09-16T08:34:18;18.70;99.90
17284;DHT22;8760;52.248;20.952;2022-09-16T08:36:45;19.30;99.90
17284;DHT22;8760;52.248;20.952;2022-09-16T08:39:12;18.80;99.90
17284;DHT22;8760;52.248;20.952;2022-09-16T08:45:09;19.20;99.90
17284;DHT22;8760;52.248;20.952;2022-09-16T08:47:45;19.20;99.90
17284;DHT22;8760;52.248;20.952;2022-09-16T08:50:18;19.80;99.90
17284;DHT22;8760;52.248;20.952;2022-09-16T08:52:48;20.40;99.90
17284;DHT22;8760;52.248;20.952;2022-09-16T08:55:19;20.60;99.90
17284;DHT22;8760;52.248;20.952;2022-09-16T08:57:52;20.40;99.90
17284;DHT22;8760;52.248;20.952;2022-09-16T09:00:22;20.00;99.90
17284;DHT22;8760;52.248;20.952;2022-09-16T09:02:52;19.50;99.90
17284;DHT22;8760;52.248;20.952;2022-09-16T09:05:27;19.70;99.90
17284;DHT22;8760;52.248;20.952;2022-09-16T09:08:24;19.20;99.90
17284;DHT22;8760;52.248;20.952;2022-09-16T09:10:55;18.70;99.90
17284;DHT22;8760;52.248;20.952;2022-09-16T09:13:41;18.20;99.90
17284;DHT22;8760;52.248;20.952;2022-09-16T09:16:17;17.90;99.90
17284;DHT22;8760;52.248;20.952;2022-09-16T09:18:54;17.40;99.90
17284;DHT22;8760;52.248;20.952;2022-09-16T09:21:30;17.10;99.90
17284;DHT22;8760;52.248;20.952;2022-09-16T09:24:27;17.00;99.90
17284;DHT22;8760;52.248;20.952;2022-09-16T09:27:00;16.90;99.90
17284;DHT22;8760;52.248;20.952;2022-09-16T09:30:01;17.00;99.90
17284;DHT22;8760;52.248;20.952;2022-09-16T09:32:43;17.40;99.90
17284;DHT22;8760;52.248;20.952;2022-09-16T09:35:20;18.00;99.90
17284;DHT22;8760;52.248;20.952;2022-09-16T09:38:11;19.20;99.90
17284;DHT22;8760;52.248;20.952;2022-09-16T09:40:42;20.00;99.90
17284;DHT22;8760;52.248;20.952;2022-09-16T09:43:15;19.50;99.90
17284;DHT22;8760;52.248;20.952;2022-09-16T09:45:45;18.90;99.90
17284;DHT22;8760;52.248;20.952;2022-09-16T09:48:19;18.80;99.90
17284;DHT22;8760;52.248;20.952;2022-09-16T09:50:47;18.60;99.90
17284;DHT22;8760;52.248;20.952;2022-09-16T09:53:19;18.50;99.90
17284;DHT22;8760;52.248;20.952;2022-09-16T09:55:50;18.00;99.90
17284;DHT22;8760;52.248;20.952;2022-09-16T09:58:25;17.80;99.90
17284;DHT22;8760;52.248;20.952;2022-09-16T10:00:54;17.70;99.90
17284;DHT22;8760;52.248;20.952;2022-09-16T10:03:24;17.40;99.90
17284;DHT22;8760;52.248;20.952;2022-09-16T10:05:51;17.00;99.90
17284;DHT22;8760;52.248;20.952;2022-09-16T10:08:24;16.70;99.90
17284;DHT22;8760;52.248;20.952;2022-09-16T10:10:53;16.60;99.90
17284;DHT22;8760;52.248;20.952;2022-09-16T10:13:21;16.70;99.90
17284;DHT22;8760;52.248;20.952;2022-09-16T10:15:49;16.50;99.90
17284;DHT22;8760;52.248;20.952;2022-09-16T10:18:25;16.60;99.90
17284;DHT22;8760;52.248;20.952;2022-09-16T10:20:58;17.00;99.90
17284;DHT22;8760;52.248;20.952;2022-09-16T10:23:25;17.20;99.90
17284;DHT22;8760;52.248;20.952;2022-09-16T10:26:03;17.10;99.90
17284;DHT22;8760;52.248;20.952;2022-09-16T10:28:30;17.30;99.90
17284;DHT22;8760;52.248;20.952;2022-09-16T10:30:58;17.10;99.90
17284;DHT22;8760;52.248;20.952;2022-09-16T10:33:30;16.70;99.90
17284;DHT22;8760;52.248;20.952;2022-09-16T10:35:59;16.60;99.90
17284;DHT22;8760;52.248;20.952;2022-09-16T10:38:35;16.90;99.90
17284;DHT22;8760;52.248;20.952;2022-09-16T10:41:06;17.70;99.90
17284;DHT22;8760;52.248;20.952;2022-09-16T10:43:35;18.50;99.90
17284;DHT22;8760;52.248;20.952;2022-09-16T10:46:04;18.50;99.90
17284;DHT22;8760;52.248;20.952;2022-09-16T10:48:33;18.20;99.90
17284;DHT22;8760;52.248;20.952;2022-09-16T10:51:02;18.60;99.90
17284;DHT22;8760;52.248;20.952;2022-09-16T10:53:31;19.40;99.90
17284;DHT22;8760;52.248;20.952;2022-09-16T10:56:00;19.50;99.90
17284;DHT22;8760;52.248;20.952;2022-09-16T10:58:27;19.20;99.90
17284;DHT22;8760;52.248;20.952;2022-09-16T11:01:08;18.90;99.90
17284;DHT22;8760;52.248;20.952;2022-09-16T11:04:08;18.60;99.90
17284;DHT22;8760;52.248;20.952;2022-09-16T11:06:47;18.80;99.90
17284;DHT22;8760;52.248;20.952;2022-09-16T11:09:23;18.80;99.90
17284;DHT22;8760;52.248;20.952;2022-09-16T11:12:19;18.80;99.90
17284;DHT22;8760;52.248;20.952;2022-09-16T11:14:55;18.70;99.90
17284;DHT22;8760;52.248;20.952;2022-09-16T11:17:33;18.60;99.90
17284;DHT22;8760;52.248;20.952;2022-09-16T11:23:13;18.60;99.90
17284;DHT22;8760;52.248;20.952;2022-09-16T11:25:47;18.10;99.90
17284;DHT22;8760;52.248;20.952;2022-09-16T11:28:34;18.00;99.90
17284;DHT22;8760;52.248;20.952;2022-09-16T11:31:08;17.70;99.90
17284;DHT22;8760;52.248;20.952;2022-09-16T11:33:44;17.60;99.90
17284;DHT22;8760;52.248;20.952;2022-09-16T11:36:38;17.60;99.90
17284;DHT22;8760;52.248;20.952;2022-09-16T11:39:21;17.70;99.90
17284;DHT22;8760;52.248;20.952;2022-09-16T11:41:58;17.80;99.90
17284;DHT22;8760;52.248;20.952;2022-09-16T11:44:38;17.90;99.90
17284;DHT22;8760;52.248;20.952;2022-09-16T11:47:17;18.10;99.90
17284;DHT22;8760;52.248;20.952;2022-09-16T11:49:58;18.10;99.90
17284;DHT22;8760;52.248;20.952;2022-09-16T11:52:40;18.10;99.90
17284;DHT22;8760;52.248;20.952;2022-09-16T11:55:19;18.10;99.90
17284;DHT22;8760;52.248;20.952;2022-09-16T11:57:52;18.00;99.90
17284;DHT22;8760;52.248;20.952;2022-09-16T12:00:20;18.10;99.90
17284;DHT22;8760;52.248;20.952;2022-09-16T12:02:54;18.20;99.90
17284;DHT22;8760;52.248;20.952;2022-09-16T12:05:28;18.40;99.90
17284;DHT22;8760;52.248;20.952;2022-09-16T12:08:03;18.50;99.90
17284;DHT22;8760;52.248;20.952;2022-09-16T12:10:35;18.50;99.90
17284;DHT22;8760;52.248;20.952;2022-09-16T12:13:06;18.50;99.90
17284;DHT22;8760;52.248;20.952;2022-09-16T12:15:36;18.40;99.90
17284;DHT22;8760;52.248;20.952;2022-09-16T12:18:10;18.40;99.90
17284;DHT22;8760;52.248;20.952;2022-09-16T12:20:42;18.20;99.90
17284;DHT22;8760;52.248;20.952;2022-09-16T12:23:17;18.10;99.90
17284;DHT22;8760;52.248;20.952;2022-09-16T12:25:46;18.00;99.90
17284;DHT22;8760;52.248;20.952;2022-09-16T12:28:23;18.10;99.90
17284;DHT22;8760;52.248;20.952;2022-09-16T12:30:58;18.10;99.90
17284;DHT22;8760;52.248;20.952;2022-09-16T12:33:29;18.20;99.90
17284;DHT22;8760;52.248;20.952;2022-09-16T12:36:01;18.20;99.90
17284;DHT22;8760;52.248;20.952;2022-09-16T12:38:30;18.20;99.90
17284;DHT22;8760;52.248;20.952;2022-09-16T12:41:11;18.30;99.90
17284;DHT22;8760;52.248;20.952;2022-09-16T12:43:59;18.00;99.90
17284;DHT22;8760;52.248;20.952;2022-09-16T12:46:45;17.90;99.90
17284;DHT22;8760;52.248;20.952;2022-09-16T12:49:35;17.50;99.90
17284;DHT22;8760;52.248;20.952;2022-09-16T12:52:20;17.30;99.90
17284;DHT22;8760;52.248;20.952;2022-09-16T12:55:22;17.20;99.90
17284;DHT22;8760;52.248;20.952;2022-09-16T13:00:54;17.40;99.90
17284;DHT22;8760;52.248;20.952;2022-09-16T13:03:24;17.50;99.90
17284;DHT22;8760;52.248;20.952;2022-09-16T13:05:53;17.50;99.90
17284;DHT22;8760;52.248;20.952;2022-09-16T13:08:24;17.40;99.90
17284;DHT22;8760;52.248;20.952;2022-09-16T13:10:58;17.60;99.90
17284;DHT22;8760;52.248;20.952;2022-09-16T13:13:36;17.70;99.90
17284;DHT22;8760;52.248;20.952;2022-09-16T13:16:05;17.90;99.90
17284;DHT22;8760;52.248;20.952;2022-09-16T13:18:41;18.00;99.90
17284;DHT22;8760;52.248;20.952;2022-09-16T13:21:20;18.10;99.90
17284;DHT22;8760;52.248;20.952;2022-09-16T13:23:53;18.10;99.90
17284;DHT22;8760;52.248;20.952;2022-09-16T13:26:38;17.90;99.90
17284;DHT22;8760;52.248;20.952;2022-09-16T13:29:37;17.90;99.90
17284;DHT22;8760;52.248;20.952;2022-09-16T13:32:22;17.90;99.90
17284;DHT22;8760;52.248;20.952;2022-09-16T13:34:59;17.90;99.90
17284;DHT22;8760;52.248;20.952;2022-09-16T13:37:26;18.00;99.90
17284;DHT22;8760;52.248;20.952;2022-09-16T13:39:53;18.10;99.90
17284;DHT22;8760;52.248;20.952;2022-09-16T13:42:21;18.30;99.90
17284;DHT22;8760;52.248;20.952;2022-09-16T13:44:49;18.50;99.90
17284;DHT22;8760;52.248;20.952;2022-09-16T13:47:28;18.40;99.90
17284;DHT22;8760;52.248;20.952;2022-09-16T13:49:59;18.40;99.90
17284;DHT22;8760;52.248;20.952;2022-09-16T13:52:29;18.40;99.90
17284;DHT22;8760;52.248;20.952;2022-09-16T13:54:58;18.40;99.90
17284;DHT22;8760;52.248;20.952;2022-09-16T13:57:45;18.50;99.90
17284;DHT22;8760;52.248;20.952;2022-09-16T14:00:18;18.50;99.90
17284;DHT22;8760;52.248;20.952;2022-09-16T14:03:04;18.20;99.90
17284;DHT22;8760;52.248;20.952;2022-09-16T14:05:43;17.90;99.90
17284;DHT22;8760;52.248;20.952;2022-09-16T14:08:16;17.70;99.90
17284;DHT22;8760;52.248;20.952;2022-09-16T14:10:53;17.60;99.90
17284;DHT22;8760;52.248;20.952;2022-09-16T14:13:23;17.60;99.90
17284;DHT22;8760;52.248;20.952;2022-09-16T14:15:52;17.70;99.90
17284;DHT22;8760;52.248;20.952;2022-09-16T14:18:21;17.80;99.90
17284;DHT22;8760;52.248;20.952;2022-09-16T14:20:56;17.90;99.90
17284;DHT22;8760;52.248;20.952;2022-09-16T14:23:25;17.90;99.90
17284;DHT22;8760;52.248;20.952;2022-09-16T14:25:52;17.90;99.90
17284;DHT22;8760;52.248;20.952;2022-09-16T14:28:21;17.90;99.90
17284;DHT22;8760;52.248;20.952;2022-09-16T14:30:52;18.00;99.90
17284;DHT22;8760;52.248;20.952;2022-09-16T14:33:23;18.00;99.90
17284;DHT22;8760;52.248;20.952;2022-09-16T14:35:52;17.90;99.90
17284;DHT22;8760;52.248;20.952;2022-09-16T14:38:28;17.90;99.90
17284;DHT22;8760;52.248;20.952;2022-09-16T14:40:56;17.80;99.90
17284;DHT22;8760;52.248;20.952;2022-09-16T14:43:23;17.90;99.90
17284;DHT22;8760;52.248;20.952;2022-09-16T14:45:54;17.80;99.90
17284;DHT22;8760;52.248;20.952;2022-09-16T14:48:27;17.90;99.90
17284;DHT22;8760;52.248;20.952;2022-09-16T14:50:56;18.00;99.90
17284;DHT22;8760;52.248;20.952;2022-09-16T14:53:28;17.90;99.90
17284;DHT22;8760;52.248;20.952;2022-09-16T14:55:56;18.00;99.90
17284;DHT22;8760;52.248;20.952;2022-09-16T14:58:25;18.10;99.90
17284;DHT22;8760;52.248;20.952;2022-09-16T15:00:56;18.00;99.90
17284;DHT22;8760;52.248;20.952;2022-09-16T15:03:27;17.80;99.90
17284;DHT22;8760;52.248;20.952;2022-09-16T15:05:57;17.50;99.90
17284;DHT22;8760;52.248;20.952;2022-09-16T15:08:27;17.30;99.90
17284;DHT22;8760;52.248;20.952;2022-09-16T15:10:57;17.10;99.90
17284;DHT22;8760;52.248;20.952;2022-09-16T15:13:26;16.90;99.90
17284;DHT22;8760;52.248;20.952;2022-09-16T15:15:57;16.90;99.90
17284;DHT22;8760;52.248;20.952;2022-09-16T15:18:28;16.90;99.90
17284;DHT22;8760;52.248;20.952;2022-09-16T15:21:02;16.80;99.90
17284;DHT22;8760;52.248;20.952;2022-09-16T15:23:31;16.90;99.90
17284;DHT22;8760;52.248;20.952;2022-09-16T15:26:12;17.00;99.90
17284;DHT22;8760;52.248;20.952;2022-09-16T15:28:54;17.10;99.90
17284;DHT22;8760;52.248;20.952;2022-09-16T15:31:31;17.00;99.90
17284;DHT22;8760;52.248;20.952;2022-09-16T15:34:00;17.00;99.90
17284;DHT22;8760;52.248;20.952;2022-09-16T15:36:33;16.80;99.90
17284;DHT22;8760;52.248;20.952;2022-09-16T15:39:01;16.70;99.90
17284;DHT22;8760;52.248;20.952;2022-09-16T15:41:27;16.60;99.90
17284;DHT22;8760;52.248;20.952;2022-09-16T15:43:57;16.50;99.90
17284;DHT22;8760;52.248;20.952;2022-09-16T15:46:24;16.60;99.90
17284;DHT22;8760;52.248;20.952;2022-09-16T15:48:54;16.50;99.90
17284;DHT22;8760;52.248;20.952;2022-09-16T15:51:29;16.50;99.90
17284;DHT22;8760;52.248;20.952;2022-09-16T15:54:01;16.50;99.90
17284;DHT22;8760;52.248;20.952;2022-09-16T15:56:33;16.50;99.90
17284;DHT22;8760;52.248;20.952;2022-09-16T15:59:05;16.40;99.90
17284;DHT22;8760;52.248;20.952;2022-09-16T16:01:39;16.40;99.90
17284;DHT22;8760;52.248;20.952;2022-09-16T16:04:11;16.40;99.90
17284;DHT22;8760;52.248;20.952;2022-09-16T16:06:51;16.30;99.90
17284;DHT22;8760;52.248;20.952;2022-09-16T16:09:42;16.10;99.90
17284;DHT22;8760;52.248;20.952;2022-09-16T16:12:11;16.00;99.90
17284;DHT22;8760;52.248;20.952;2022-09-16T16:14:39;16.00;99.90
17284;DHT22;8760;52.248;20.952;2022-09-16T16:17:08;16.00;99.90
17284;DHT22;8760;52.248;20.952;2022-09-16T16:19:37;15.90;99.90